Time;durP1;ratioP1;P1;durP2;ratioP2;P2;SDS_P1;SDS_P2;PMS_P1;PMS_P2;Temp;Humidity;BMP_temperature;BMP_pressure;BME280_temperature;BME280_humidity;BME280_pressure;Samples;Min_cycle;Max_cycle;Signal;HPM_P1;HPM_P2
2022/08/21 00:02:23;;;;;;;12.50;11.23;;;;;;;18.03;100.00;92360.47;5048909;28;20187;-71
2022/08/21 00:04:50;;;;;;;12.60;11.27;;;;;;;18.01;100.00;92354.75;5048615;28;20257;-71
2022/08/21 00:07:16;;;;;;;12.50;11.30;;;;;;;18.11;100.00;92349.81;5049743;28;20206;-71
2022/08/21 00:09:41;;;;;;;12.63;11.43;;;;;;;18.15;100.00;92349.91;5048815;28;20249;-71
2022/08/21 00:12:07;;;;;;;15.90;12.27;;;;;;;17.93;100.00;92311.47;5050170;28;20183;-71
2022/08/21 00:14:34;;;;;;;16.13;12.73;;;;;;;18.02;100.00;92345.72;5049138;28;20237;-71
2022/08/21 00:16:59;;;;;;;14.93;12.70;;;;;;;18.01;100.00;92336.25;5029857;28;20208;-72
2022/08/21 00:19:25;;;;;;;13.60;12.03;;;;;;;17.97;100.00;92340.66;5029511;28;20299;-72
2022/08/21 00:21:54;;;;;;;14.43;11.57;;;;;;;17.81;100.00;92329.19;5029579;28;20192;-71
2022/08/21 00:24:22;;;;;;;15.33;12.83;;;;;;;17.91;100.00;92341.97;5029457;28;20236;-69
2022/08/21 00:26:48;;;;;;;14.23;12.87;;;;;;;17.86;100.00;92321.06;5029276;28;20184;-72
2022/08/21 00:29:14;;;;;;;16.00;14.27;;;;;;;17.81;100.00;92319.41;5029316;28;20251;-71
2022/08/21 00:31:40;;;;;;;15.90;13.83;;;;;;;18.06;100.00;92331.53;5029243;28;20188;-71
2022/08/21 00:34:07;;;;;;;21.50;13.80;;;;;;;17.94;100.00;92325.47;5029366;28;20391;-71
2022/08/21 00:36:34;;;;;;;17.87;13.80;;;;;;;17.82;100.00;92304.34;5029232;28;20303;-71
2022/08/21 00:39:00;;;;;;;18.70;14.77;;;;;;;17.99;100.00;92320.75;5029317;28;20233;-72
2022/08/21 00:41:26;;;;;;;17.10;13.80;;;;;;;17.97;100.00;92328.22;5029719;28;20207;-70
2022/08/21 00:43:53;;;;;;;17.77;13.40;;;;;;;18.07;100.00;92337.59;5029864;28;20262;-72
2022/08/21 00:46:18;;;;;;;15.23;13.17;;;;;;;18.03;100.00;92336.69;5035230;28;20176;-72
2022/08/21 00:48:44;;;;;;;16.67;12.30;;;;;;;18.03;100.00;92347.25;5052245;28;20245;-71
2022/08/21 00:51:25;;;;;;;13.57;12.07;;;;;;;17.91;100.00;92329.53;5040207;28;20199;-73
2022/08/21 00:54:01;;;;;;;12.57;11.40;;;;;;;17.97;100.00;92343.28;5032518;28;20235;-72
2022/08/21 00:56:27;;;;;;;12.47;10.97;;;;;;;18.08;100.00;92333.84;5047170;28;20221;-71
2022/08/21 00:58:55;;;;;;;18.30;11.73;;;;;;;18.02;100.00;92330.66;5052326;28;20247;-72
2022/08/21 01:01:21;;;;;;;13.43;12.07;;;;;;;18.09;100.00;92335.38;5038600;28;20925;-72
2022/08/21 01:03:47;;;;;;;16.13;12.37;;;;;;;18.15;100.00;92334.81;5032510;28;20295;-71
2022/08/21 01:06:12;;;;;;;18.73;13.90;;;;;;;18.11;100.00;92326.03;5045401;28;20223;-71
2022/08/21 01:08:38;;;;;;;13.57;12.00;;;;;;;17.99;100.00;92304.13;5051673;28;20211;-72
2022/08/21 01:11:04;;;;;;;13.20;11.57;;;;;;;18.18;100.00;92320.94;5040613;28;20202;-73
2022/08/21 01:13:33;;;;;;;12.73;11.63;;;;;;;17.98;100.00;92303.34;5032721;28;20192;-72
2022/08/21 01:16:02;;;;;;;10.70;9.83;;;;;;;17.87;100.00;92309.41;5043038;28;20227;-71
2022/08/21 01:18:28;;;;;;;11.47;10.57;;;;;;;17.98;100.00;92321.06;5035082;28;20187;-72
2022/08/21 01:20:57;;;;;;;11.20;10.23;;;;;;;18.16;100.00;92311.81;5032334;28;20243;-71
2022/08/21 01:23:22;;;;;;;11.47;10.50;;;;;;;18.12;100.00;92303.00;5032584;28;20215;-70
2022/08/21 01:25:48;;;;;;;10.70;9.80;;;;;;;17.95;100.00;92301.34;5032104;28;20208;-72
2022/08/21 01:28:14;;;;;;;9.80;9.17;;;;;;;18.01;100.00;92307.97;5032407;28;20210;-71
2022/08/21 01:30:43;;;;;;;10.27;9.37;;;;;;;17.92;100.00;92317.09;5039683;28;20228;-71
2022/08/21 01:33:08;;;;;;;11.40;10.37;;;;;;;17.79;100.00;92305.00;5052142;28;20182;-70
2022/08/21 01:35:34;;;;;;;11.30;10.27;;;;;;;18.02;100.00;92319.31;5043917;28;20216;-71
2022/08/21 01:37:59;;;;;;;10.73;9.87;;;;;;;17.93;100.00;92316.00;5031861;28;20211;-71
2022/08/21 01:40:25;;;;;;;10.37;9.47;;;;;;;17.77;100.00;92304.53;5031541;28;20271;-71
2022/08/21 01:42:50;;;;;;;11.73;9.40;;;;;;;17.92;100.00;92317.88;5032347;28;20194;-71
2022/08/21 01:45:16;;;;;;;12.03;9.80;;;;;;;17.59;100.00;92293.41;5031327;28;20235;-73
2022/08/21 01:47:43;;;;;;;10.23;9.20;;;;;;;17.80;100.00;92315.22;5031921;28;20180;-71
2022/08/21 01:50:12;;;;;;;10.23;9.37;;;;;;;17.74;100.00;92318.41;5031236;28;20251;-71
2022/08/21 01:52:38;;;;;;;12.93;11.10;;;;;;;17.66;100.00;92303.44;5031824;28;20363;-71
2022/08/21 01:55:05;;;;;;;9.97;9.13;;;;;;;17.79;100.00;92324.22;5031393;28;20226;-72
2022/08/21 01:57:32;;;;;;;10.77;9.97;;;;;;;17.73;100.00;92317.63;5030961;28;20228;-71
2022/08/21 01:59:58;;;;;;;10.87;9.57;;;;;;;17.75;100.00;92322.59;5031010;28;20233;-71
2022/08/21 02:02:23;;;;;;;10.20;9.23;;;;;;;17.75;100.00;92333.91;5031707;28;20175;-70
2022/08/21 02:04:49;;;;;;;10.13;9.03;;;;;;;17.74;100.00;92323.69;5030868;28;20712;-72
2022/08/21 02:07:14;;;;;;;9.90;8.97;;;;;;;17.58;100.00;92310.34;5031780;28;20234;-71
2022/08/21 02:09:42;;;;;;;9.13;8.53;;;;;;;17.71;100.00;92319.06;5030692;28;20220;-73
2022/08/21 02:12:09;;;;;;;9.97;9.33;;;;;;;17.48;100.00;92321.31;5017637;28;20202;-71
2022/08/21 02:14:35;;;;;;;10.13;9.43;;;;;;;17.55;100.00;92332.91;5031119;28;20262;-71
2022/08/21 02:17:01;;;;;;;9.60;8.90;;;;;;;17.35;100.00;92320.50;5031274;28;20219;-72
2022/08/21 02:19:26;;;;;;;10.00;9.13;;;;;;;17.48;100.00;92327.38;5030940;28;20227;-71
2022/08/21 02:21:51;;;;;;;9.77;8.97;;;;;;;17.38;100.00;92311.94;5031098;28;20218;-72
2022/08/21 02:24:17;;;;;;;9.90;9.20;;;;;;;17.34;100.00;92334.78;5030737;28;20231;-71
2022/08/21 02:26:42;;;;;;;11.07;9.13;;;;;;;17.20;100.00;92321.13;5031229;28;20183;-72
2022/08/21 02:29:08;;;;;;;10.40;9.60;;;;;;;17.23;100.00;92322.34;5030790;28;20468;-72
2022/08/21 02:31:33;;;;;;;12.27;9.87;;;;;;;17.19;100.00;92338.06;5030635;28;20623;-72
2022/08/21 02:33:59;;;;;;;10.43;9.73;;;;;;;17.02;100.00;92314.47;5030878;28;20239;-71
2022/08/21 02:36:24;;;;;;;9.40;8.83;;;;;;;17.23;100.00;92341.59;5030599;28;20230;-71
2022/08/21 02:38:50;;;;;;;10.27;9.27;;;;;;;17.09;100.00;92322.63;5030542;28;20230;-71
2022/08/21 02:41:18;;;;;;;10.57;8.63;;;;;;;17.25;100.00;92336.75;5043945;28;20190;-71
2022/08/21 02:43:44;;;;;;;9.50;8.93;;;;;;;17.30;100.00;92336.56;5050753;28;20250;-71
2022/08/21 02:46:12;;;;;;;9.93;9.10;;;;;;;17.20;100.00;92331.69;5037691;28;20189;-72
2022/08/21 02:48:38;;;;;;;9.43;8.77;;;;;;;17.23;100.00;92336.31;5030609;28;20191;-71
2022/08/21 02:51:07;;;;;;;8.83;8.23;;;;;;;17.32;100.00;92333.59;5030461;28;20190;-72
2022/08/21 02:53:34;;;;;;;11.90;10.07;;;;;;;17.33;100.00;92329.84;5030085;28;20217;-72
2022/08/21 02:56:02;;;;;;;10.13;9.17;;;;;;;17.36;100.00;92329.97;5041459;28;20208;-71
2022/08/21 02:58:32;;;;;;;9.87;9.27;;;;;;;17.26;100.00;92343.56;5049867;28;20191;-71
2022/08/21 03:00:58;;;;;;;9.43;8.67;;;;;;;17.26;100.00;92343.56;5039381;28;20194;-72
2022/08/21 03:03:26;;;;;;;9.60;8.90;;;;;;;17.32;100.00;92336.22;5030372;28;20184;-72
2022/08/21 03:05:52;;;;;;;9.30;8.70;;;;;;;17.35;100.00;92346.13;5030273;28;20190;-72
2022/08/21 03:08:18;;;;;;;9.70;9.00;;;;;;;17.31;100.00;92348.66;5030618;28;20218;-71
2022/08/21 03:10:47;;;;;;;9.40;8.60;;;;;;;17.22;100.00;92342.69;5037966;28;20222;-72
2022/08/21 03:13:13;;;;;;;10.10;9.20;;;;;;;17.12;100.00;92308.03;5036078;28;20191;-71
2022/08/21 03:15:39;;;;;;;9.77;9.00;;;;;;;17.43;100.00;92340.75;5029718;28;20203;-71
2022/08/21 03:18:06;;;;;;;9.67;9.07;;;;;;;17.46;100.00;92340.13;5030614;28;20228;-71
2022/08/21 03:20:33;;;;;;;10.37;9.50;;;;;;;17.41;100.00;92334.28;5029409;28;20245;-72
2022/08/21 03:22:59;;;;;;;9.37;8.70;;;;;;;17.45;100.00;92340.47;5030617;28;20195;-71
2022/08/21 03:25:26;;;;;;;9.87;9.03;;;;;;;17.42;100.00;92341.09;5029549;28;20218;-71
2022/08/21 03:27:52;;;;;;;9.90;9.13;;;;;;;17.32;100.00;92336.22;5030183;28;20200;-71
2022/08/21 03:30:19;;;;;;;11.20;9.13;;;;;;;17.36;100.00;92331.84;5034576;28;20223;-71
2022/08/21 03:32:46;;;;;;;9.93;9.23;;;;;;;17.32;100.00;92329.06;5050158;28;20254;-72
2022/08/21 03:35:13;;;;;;;9.97;9.03;;;;;;;17.23;100.00;92333.66;5048855;28;20281;-71
2022/08/21 03:37:38;;;;;;;8.67;8.03;;;;;;;17.36;100.00;92324.69;5038617;28;20293;-71
2022/08/21 03:40:06;;;;;;;8.63;8.13;;;;;;;17.27;100.00;92333.78;5029526;28;20219;-71
2022/08/21 03:42:32;;;;;;;11.47;10.13;;;;;;;17.19;100.00;92329.38;5030520;28;20191;-70
2022/08/21 03:44:58;;;;;;;9.43;8.83;;;;;;;17.37;100.00;92326.22;5029540;28;20231;-71
2022/08/21 03:47:23;;;;;;;9.37;8.63;;;;;;;17.35;100.00;92312.56;5029981;28;20247;-71
2022/08/21 03:49:49;;;;;;;10.43;9.53;;;;;;;17.26;100.00;92314.53;5029398;28;20246;-71
2022/08/21 03:52:15;;;;;;;8.90;8.30;;;;;;;17.20;100.00;92318.47;5030145;28;20187;-71
2022/08/21 03:54:41;;;;;;;10.20;9.30;;;;;;;17.29;100.00;92315.78;5029177;28;20274;-72
2022/08/21 03:57:08;;;;;;;8.90;8.17;;;;;;;17.03;100.00;92320.50;5030311;28;20211;-71
2022/08/21 03:59:34;;;;;;;10.27;9.33;;;;;;;17.35;100.00;92352.16;5028606;28;20233;-72
2022/08/21 04:02:01;;;;;;;9.27;8.57;;;;;;;17.26;100.00;92351.47;5048767;28;20186;-71
2022/08/21 04:04:28;;;;;;;10.17;9.03;;;;;;;17.23;100.00;92351.38;5049274;28;20214;-71
2022/08/21 04:06:54;;;;;;;9.23;8.50;;;;;;;17.29;100.00;92356.09;5030616;28;20234;-71
2022/08/21 04:09:20;;;;;;;10.77;9.73;;;;;;;17.09;100.00;92335.06;5029426;28;20229;-71
2022/08/21 04:11:46;;;;;;;8.67;8.17;;;;;;;17.00;100.00;92327.22;5027009;28;20247;-71
2022/08/21 04:14:12;;;;;;;13.30;9.10;;;;;;;16.97;100.00;92351.59;5010148;28;20243;-71
2022/08/21 04:16:38;;;;;;;11.53;8.97;;;;;;;17.21;100.00;92348.28;5026196;28;20284;-72
2022/08/21 04:19:03;;;;;;;9.43;8.70;;;;;;;17.17;100.00;92332.34;5028487;28;20964;-72
2022/08/21 04:21:29;;;;;;;10.63;9.60;;;;;;;17.26;100.00;92343.56;5045561;28;20209;-71
2022/08/21 04:23:55;;;;;;;9.17;8.67;;;;;;;17.36;100.00;92340.53;5053292;28;20226;-71
2022/08/21 04:26:21;;;;;;;10.03;9.03;;;;;;;17.20;100.00;92347.50;5038887;28;20175;-70
2022/08/21 04:28:46;;;;;;;10.03;8.67;;;;;;;17.36;100.00;92326.56;5032937;28;20250;-71
2022/08/21 04:31:12;;;;;;;9.93;9.07;;;;;;;17.41;100.00;92342.19;5032982;28;20202;-71
2022/08/21 04:33:37;;;;;;;9.37;8.73;;;;;;;17.37;100.00;92326.22;5032887;28;20182;-71
2022/08/21 04:36:04;;;;;;;10.00;9.00;;;;;;;17.58;100.00;92342.81;5033172;28;20184;-71
2022/08/21 04:38:31;;;;;;;9.53;8.83;;;;;;;17.49;100.00;92339.47;5032511;28;20214;-72
2022/08/21 04:40:57;;;;;;;9.70;8.90;;;;;;;17.59;100.00;92344.34;5032006;28;20183;-72
2022/08/21 04:43:23;;;;;;;10.70;9.80;;;;;;;17.45;100.00;92333.31;5033740;28;20187;-71
2022/08/21 04:45:50;;;;;;;8.70;8.00;;;;;;;17.62;100.00;92342.16;5039973;28;20229;-72
2022/08/21 04:48:21;;;;;;;10.20;9.30;;;;;;;17.63;100.00;92335.78;5013544;28;20199;-72
2022/08/21 04:51:05;;;;;;;9.00;8.30;;;;;;;17.72;100.00;92339.88;5031039;28;20228;-71
2022/08/21 04:53:56;;;;;;;10.60;9.63;;;;;;;17.80;100.00;92348.78;5052499;28;20183;-72
2022/08/21 04:56:26;;;;;;;10.97;9.87;;;;;;;17.87;100.00;92344.50;5051678;28;20219;-72
2022/08/21 04:58:58;;;;;;;10.87;9.80;;;;;;;18.06;100.00;92344.72;5052681;28;20234;-72
2022/08/21 05:01:27;;;;;;;9.53;8.93;;;;;;;18.07;100.00;92338.34;5051773;28;20178;-72
2022/08/21 05:03:56;;;;;;;10.70;9.57;;;;;;;18.39;100.00;92334.84;5012908;28;20239;-73
2022/08/21 05:06:23;;;;;;;10.37;9.67;;;;;;;18.52;100.00;92325.03;5040386;28;20245;-71
2022/08/21 05:08:52;;;;;;;10.20;9.40;;;;;;;17.98;100.00;92350.88;5052339;28;20262;-71
2022/08/21 05:11:19;;;;;;;10.07;9.27;;;;;;;18.23;100.00;92351.66;5051916;28;20187;-71
2022/08/21 05:13:45;;;;;;;13.93;9.43;;;;;;;18.90;100.00;92354.44;5033364;28;20229;-71
2022/08/21 05:16:10;;;;;;;10.27;9.27;;;;;;;19.08;98.62;92323.97;5032235;28;20175;-71
2022/08/21 05:18:35;;;;;;;11.00;9.47;;;;;;;18.79;99.45;92342.78;5032181;28;20277;-72
2022/08/21 05:21:01;;;;;;;10.83;9.80;;;;;;;19.06;97.87;92350.78;5031729;28;20201;-71
2022/08/21 05:23:26;;;;;;;11.73;9.77;;;;;;;18.62;100.00;92354.41;5031962;28;20271;-71
2022/08/21 05:25:52;;;;;;;12.03;10.10;;;;;;;19.00;100.00;92351.34;5032056;28;20181;-71
2022/08/21 05:28:18;;;;;;;10.63;9.73;;;;;;;19.17;99.58;92343.88;5032500;28;20202;-71
2022/08/21 05:30:44;;;;;;;10.27;9.40;;;;;;;19.70;96.82;92353.28;5040189;28;20271;-72
2022/08/21 05:33:09;;;;;;;10.87;10.10;;;;;;;19.69;97.12;92343.78;5051212;28;20197;-71
2022/08/21 05:35:36;;;;;;;13.03;11.70;;;;;;;19.85;95.01;92352.50;5043097;28;20217;-72
2022/08/21 05:38:02;;;;;;;11.13;10.23;;;;;;;19.88;96.50;92351.03;5032715;28;20235;-72
2022/08/21 05:40:28;;;;;;;12.20;11.10;;;;;;;19.43;95.21;92355.94;5037606;28;20208;-72
2022/08/21 05:42:55;;;;;;;11.60;10.50;;;;;;;19.41;99.42;92347.59;5051159;28;20259;-71
2022/08/21 05:45:26;;;;;;;12.27;10.63;;;;;;;20.30;93.77;92358.19;5045158;28;20219;-71
2022/08/21 05:47:51;;;;;;;10.83;9.93;;;;;;;19.98;92.37;92351.34;5032121;28;20193;-72
2022/08/21 05:50:17;;;;;;;10.23;9.53;;;;;;;20.13;91.49;92316.13;5046322;28;20308;-72
2022/08/21 05:52:42;;;;;;;11.67;10.70;;;;;;;20.64;89.99;92324.81;5051423;28;20180;-71
2022/08/21 05:55:08;;;;;;;10.67;9.87;;;;;;;20.00;90.17;92348.34;5050318;28;20237;-73
2022/08/21 05:57:33;;;;;;;11.60;10.50;;;;;;;19.37;92.52;92309.63;5051683;28;20213;-72
2022/08/21 05:59:58;;;;;;;10.40;9.50;;;;;;;19.99;89.93;92313.09;5034328;28;20312;-72
2022/08/21 06:02:24;;;;;;;10.50;9.50;;;;;;;20.21;91.07;92349.63;5051450;28;20199;-72
2022/08/21 06:04:49;;;;;;;9.98;9.05;;;;;;;21.19;88.29;92350.25;5050455;28;20233;-72
2022/08/21 06:07:15;;;;;;;10.65;9.60;;;;;;;25.38;67.29;92362.44;5051275;28;20221;-71
2022/08/21 06:09:41;;;;;;;11.15;9.20;;;;;;;28.29;57.54;92370.28;5050116;28;20220;-73
2022/08/21 06:12:08;;;;;;;10.15;9.35;;;;;;;28.21;56.57;92371.50;5045799;28;20201;-71
2022/08/21 06:14:34;;;;;;;10.00;9.00;;;;;;;27.72;55.66;92374.41;5030969;28;20330;-72
2022/08/21 06:17:09;;;;;;;9.80;9.10;;;;;;;27.66;55.74;92368.69;5030940;28;20222;-72
2022/08/21 06:19:36;;;;;;;10.88;9.98;;;;;;;24.55;65.70;92335.56;5030763;28;20226;-72
2022/08/21 06:22:01;;;;;;;9.70;9.00;;;;;;;23.91;68.39;92362.81;5030929;28;20205;-72
2022/08/21 06:24:27;;;;;;;11.85;10.63;;;;;;;22.18;76.99;92349.06;5030971;28;20241;-71
2022/08/21 06:26:53;;;;;;;10.15;9.45;;;;;;;22.09;77.95;92350.44;5030847;28;20228;-72
2022/08/21 06:29:19;;;;;;;10.95;9.98;;;;;;;22.14;78.93;92340.28;5030994;28;20234;-71
2022/08/21 06:31:46;;;;;;;11.63;10.63;;;;;;;21.93;80.58;92352.47;5030749;28;20219;-72
2022/08/21 06:34:12;;;;;;;11.30;9.65;;;;;;;21.27;83.62;92339.44;5030500;28;20226;-72
2022/08/21 06:36:38;;;;;;;11.82;10.75;;;;;;;20.67;84.44;92351.44;5043758;28;20203;-71
2022/08/21 06:39:04;;;;;;;11.07;10.00;;;;;;;20.91;85.92;92345.13;5030809;28;20228;-73
2022/08/21 06:41:29;;;;;;;11.05;9.98;;;;;;;21.18;85.57;92343.44;5030463;28;20197;-72
2022/08/21 06:43:56;;;;;;;10.55;9.65;;;;;;;21.21;84.78;92361.31;5031005;28;20229;-72
2022/08/21 06:46:23;;;;;;;12.45;9.65;;;;;;;21.08;85.24;92358.03;5030491;28;20193;-71
2022/08/21 06:48:49;;;;;;;10.48;9.35;;;;;;;21.07;85.21;92358.38;5030763;28;20250;-71
2022/08/21 06:51:14;;;;;;;10.93;9.82;;;;;;;20.91;84.83;92360.28;5043652;28;20191;-72
2022/08/21 06:53:40;;;;;;;10.70;9.80;;;;;;;20.01;87.90;92355.94;5050135;28;20658;-71
2022/08/21 06:56:05;;;;;;;11.05;9.95;;;;;;;20.08;90.74;92364.06;5032195;28;20229;-71
2022/08/21 06:58:30;;;;;;;10.98;10.07;;;;;;;20.32;89.00;92373.75;5030298;28;20214;-72
2022/08/21 07:00:56;;;;;;;10.57;9.77;;;;;;;20.58;85.53;92369.44;5030614;28;20195;-72
2022/08/21 07:03:31;;;;;;;11.00;9.88;;;;;;;20.52;88.32;92364.72;5030557;28;20186;-71
2022/08/21 07:05:58;;;;;;;10.75;10.05;;;;;;;20.15;91.89;92334.34;5030116;28;20202;-73
2022/08/21 07:08:25;;;;;;;11.00;10.00;;;;;;;20.13;89.36;92371.78;5030005;28;20277;-74
2022/08/21 07:10:52;;;;;;;10.23;9.43;;;;;;;20.18;90.17;92366.22;5030358;28;20198;-71
2022/08/21 07:13:18;;;;;;;10.90;10.00;;;;;;;20.70;88.29;92377.28;5030842;28;20191;-71
2022/08/21 07:15:44;;;;;;;13.57;10.48;;;;;;;20.83;87.60;92374.50;5029404;28;20300;-71
2022/08/21 07:18:11;;;;;;;10.65;9.70;;;;;;;21.11;86.23;92351.22;5030450;28;20204;-71
2022/08/21 07:20:37;;;;;;;10.75;9.68;;;;;;;21.22;85.84;92365.50;5029565;28;20275;-73
2022/08/21 07:23:06;;;;;;;13.38;10.55;;;;;;;21.43;84.11;92369.34;5030203;28;20216;-71
2022/08/21 07:25:31;;;;;;;11.82;10.75;;;;;;;21.12;85.37;92350.88;5036385;28;20269;-72
2022/08/21 07:27:57;;;;;;;11.43;9.68;;;;;;;21.70;82.84;92364.91;5050027;28;20631;-71
2022/08/21 07:30:23;;;;;;;12.18;11.18;;;;;;;21.71;82.55;92366.47;5048599;28;20220;-71
2022/08/21 07:32:49;;;;;;;10.98;9.98;;;;;;;22.08;80.29;92362.97;5050107;28;20179;-71
2022/08/21 07:35:15;;;;;;;10.15;9.35;;;;;;;22.30;81.07;92358.00;5049031;28;20284;-71
2022/08/21 07:37:40;;;;;;;10.77;9.80;;;;;;;22.37;78.16;92363.44;5049682;28;20202;-72
2022/08/21 07:40:06;;;;;;;12.55;10.40;;;;;;;20.96;82.79;92342.25;5049060;28;20230;-72
2022/08/21 07:42:32;;;;;;;11.57;10.68;;;;;;;20.94;84.38;92338.34;5049924;28;20183;-72
2022/08/21 07:44:57;;;;;;;11.38;10.27;;;;;;;20.73;84.22;92343.22;5049281;28;20225;-70
2022/08/21 07:47:23;;;;;;;11.70;10.60;;;;;;;20.98;83.97;92353.25;5035004;28;20196;-71
2022/08/21 07:49:48;;;;;;;12.00;11.00;;;;;;;20.58;84.66;92348.22;5030688;28;20224;-72
2022/08/21 07:52:14;;;;;;;11.43;10.30;;;;;;;21.84;82.04;92344.69;5033393;28;20182;-72
2022/08/21 07:54:39;;;;;;;11.60;10.65;;;;;;;22.00;78.38;92348.03;5029274;28;20230;-70
2022/08/21 07:57:04;;;;;;;10.98;9.98;;;;;;;21.29;81.74;92339.84;5013123;28;20846;-71
2022/08/21 07:59:30;;;;;;;12.18;11.13;;;;;;;20.49;82.08;92329.06;5013793;28;20229;-72
2022/08/21 08:01:56;;;;;;;10.77;9.77;;;;;;;21.27;83.77;92307.59;5032903;28;20185;-71
2022/08/21 08:04:22;;;;;;;14.68;11.00;;;;;;;21.78;82.63;92348.00;5032429;28;20236;-73
2022/08/21 08:06:47;;;;;;;10.65;9.57;;;;;;;22.29;77.75;92359.13;5033480;28;20237;-71
2022/08/21 08:09:12;;;;;;;11.75;10.50;;;;;;;22.53;77.62;92346.22;5033248;28;20229;-73
2022/08/21 08:11:43;;;;;;;10.52;9.70;;;;;;;22.78;72.58;92363.34;5031503;28;20181;-71
2022/08/21 08:14:09;;;;;;;10.00;9.07;;;;;;;22.69;74.49;92351.41;5014643;28;20211;-72
2022/08/21 08:16:34;;;;;;;11.50;10.57;;;;;;;22.94;74.29;92353.25;5029077;28;20215;-72
2022/08/21 08:19:00;;;;;;;12.00;10.27;;;;;;;23.64;68.10;92354.16;5033316;28;20229;-70
2022/08/21 08:21:26;;;;;;;10.82;9.88;;;;;;;22.57;74.44;92360.34;5033141;28;20197;-71
2022/08/21 08:23:51;;;;;;;11.80;10.18;;;;;;;23.13;74.93;92352.41;5033081;28;20229;-71
2022/08/21 08:26:17;;;;;;;10.30;9.30;;;;;;;23.21;74.20;92346.78;5033254;28;20175;-71
2022/08/21 08:28:43;;;;;;;10.35;9.63;;;;;;;23.47;74.10;92354.72;5033070;28;20236;-71
2022/08/21 08:31:08;;;;;;;11.35;10.20;;;;;;;23.14;73.23;92352.03;5033095;28;20184;-71
2022/08/21 08:33:33;;;;;;;12.05;10.93;;;;;;;21.76;76.86;92342.28;5032891;28;20232;-72
2022/08/21 08:35:59;;;;;;;12.95;10.88;;;;;;;22.66;75.17;92362.75;5032277;28;20178;-72
2022/08/21 08:38:25;;;;;;;12.07;10.85;;;;;;;22.05;77.47;92363.66;5032654;28;20218;-72
2022/08/21 08:40:56;;;;;;;14.02;10.40;;;;;;;21.20;79.70;92357.13;5033132;28;20185;-71
2022/08/21 08:43:22;;;;;;;11.45;10.27;;;;;;;21.75;77.58;92351.38;5033314;28;20181;-71
2022/08/21 08:45:56;;;;;;;10.65;9.85;;;;;;;21.93;78.04;92352.47;5024203;28;20253;-71
2022/08/21 08:49:02;;;;;;;11.68;10.38;;;;;;;22.38;73.77;92327.72;5028791;28;20189;-71
2022/08/21 08:51:34;;;;;;;9.73;8.93;;;;;;;22.16;75.00;92353.97;5044454;28;20217;-71
2022/08/21 08:54:05;;;;;;;10.27;9.13;;;;;;;22.67;73.91;92358.97;5052610;28;20905;-71
2022/08/21 08:56:33;;;;;;;11.27;10.32;;;;;;;23.03;72.53;92345.03;5036600;28;20205;-71
2022/08/21 08:59:21;;;;;;;9.93;9.07;;;;;;;23.47;70.94;92341.41;5032846;28;20237;-71
2022/08/21 09:01:47;;;;;;;11.75;10.55;;;;;;;23.08;72.33;92348.13;5032638;28;20179;-71
2022/08/21 09:04:22;;;;;;;10.68;9.80;;;;;;;23.10;74.61;92339.78;5032902;28;20250;-71
2022/08/21 09:07:38;;;;;;;11.50;10.18;;;;;;;23.96;69.52;92348.38;5032059;28;20240;-72
2022/08/21 09:10:21;;;;;;;10.65;9.52;;;;;;;24.25;66.53;92350.22;5032341;28;20227;-72
2022/08/21 09:13:23;;;;;;;10.38;9.50;;;;;;;24.86;64.23;92344.94;5041186;28;20191;-72
2022/08/21 09:16:06;;;;;;;10.10;9.38;;;;;;;24.76;64.87;92338.41;5029008;28;20229;-72
2022/08/21 09:18:31;;;;;;;11.80;10.80;;;;;;;25.18;63.81;92337.91;5051782;28;20954;-72
2022/08/21 09:21:28;;;;;;;12.35;10.85;;;;;;;25.25;65.67;92333.34;5041248;28;20204;-71
2022/08/21 09:24:15;;;;;;;10.65;9.55;;;;;;;25.82;61.84;92336.25;5032380;28;20259;-71
2022/08/21 09:26:52;;;;;;;9.45;8.73;;;;;;;25.66;62.28;92309.84;5048683;28;20345;-72
2022/08/21 09:29:23;;;;;;;9.63;9.02;;;;;;;25.94;58.31;92331.31;5052046;28;20235;-71
2022/08/21 09:31:48;;;;;;;9.90;9.10;;;;;;;25.71;60.23;92322.84;5034200;28;20233;-71
2022/08/21 09:34:25;;;;;;;10.73;9.40;;;;;;;25.39;59.43;92324.63;5032065;28;20226;-71
2022/08/21 09:36:50;;;;;;;10.77;9.27;;;;;;;24.99;62.16;92308.78;5045610;28;20218;-70
2022/08/21 09:39:27;;;;;;;9.77;9.07;;;;;;;25.09;60.81;92329.47;5031947;28;20230;-72
2022/08/21 09:41:59;;;;;;;9.30;8.63;;;;;;;24.21;63.68;92336.06;5027807;28;20191;-73
2022/08/21 09:44:33;;;;;;;10.65;9.63;;;;;;;24.73;63.20;92335.72;5026394;28;20226;-71
2022/08/21 09:46:59;;;;;;;10.90;9.88;;;;;;;24.19;64.63;92328.44;5030873;28;20214;-72
2022/08/21 09:49:34;;;;;;;10.20;9.07;;;;;;;24.49;63.72;92333.63;5031602;28;20242;-72
2022/08/21 09:52:01;;;;;;;10.98;10.15;;;;;;;24.10;64.24;92327.97;5050934;28;20727;-72
2022/08/21 09:54:40;;;;;;;11.93;10.38;;;;;;;23.73;69.38;92325.31;5051141;28;20250;-72
2022/08/21 09:59:52;;;;;;;11.15;9.95;;;;;;;23.17;68.50;92300.69;5015396;28;20333;-71
2022/08/21 10:02:23;;;;;;;10.60;9.80;;;;;;;22.99;70.00;92315.69;5051672;28;20196;-72
2022/08/21 10:04:57;;;;;;;12.18;10.98;;;;;;;22.89;69.52;92311.00;5048718;28;20277;-73
2022/08/21 10:07:25;;;;;;;11.85;10.52;;;;;;;22.75;70.38;92313.47;5030406;28;20217;-71
2022/08/21 10:10:02;;;;;;;11.18;10.38;;;;;;;23.02;70.40;92317.63;5032297;28;20224;-72
2022/08/21 10:12:44;;;;;;;11.00;10.02;;;;;;;23.04;69.12;92291.41;5042632;28;20192;-71
2022/08/21 10:15:23;;;;;;;11.13;10.10;;;;;;;23.35;69.25;92312.34;5035093;28;20270;-71
2022/08/21 10:18:20;;;;;;;10.55;9.70;;;;;;;23.65;67.18;92309.63;5051530;28;20214;-71
2022/08/21 10:21:01;;;;;;;11.15;9.57;;;;;;;23.75;69.05;92308.97;5049898;28;20227;-73
2022/08/21 10:23:54;;;;;;;11.43;10.32;;;;;;;24.02;68.23;92304.25;5050613;28;20191;-72
2022/08/21 10:26:43;;;;;;;10.00;9.10;;;;;;;24.15;66.40;92308.19;5050328;28;20197;-71
2022/08/21 10:29:36;;;;;;;10.48;9.48;;;;;;;24.40;66.50;92303.81;5050739;28;20300;-71
2022/08/21 10:32:07;;;;;;;10.82;9.85;;;;;;;24.33;66.00;92301.09;5031139;28;20223;-71
2022/08/21 10:34:58;;;;;;;10.25;9.40;;;;;;;24.34;67.79;92294.63;5030890;28;20245;-71
2022/08/21 10:37:54;;;;;;;11.10;10.23;;;;;;;24.51;64.86;92289.41;5020470;28;20213;-71
2022/08/21 10:40:42;;;;;;;11.18;10.07;;;;;;;24.44;64.14;92292.03;5035744;28;20220;-72
2022/08/21 10:43:10;;;;;;;10.88;9.85;;;;;;;24.42;64.48;92290.88;5051466;28;20242;-72
2022/08/21 10:45:44;;;;;;;10.93;10.05;;;;;;;24.53;65.99;92275.69;5049880;28;20224;-72
2022/08/21 10:48:23;;;;;;;10.85;9.80;;;;;;;25.08;63.49;92290.50;5031748;28;20189;-71
2022/08/21 10:51:05;;;;;;;10.15;9.40;;;;;;;24.95;64.22;92281.31;5039969;28;20213;-71
2022/08/21 10:54:18;;;;;;;11.77;10.77;;;;;;;24.43;64.15;92279.03;5050248;28;20190;-72
2022/08/21 10:56:47;;;;;;;10.10;9.20;;;;;;;24.52;62.69;92261.56;5013212;28;20296;-71
2022/08/21 10:59:41;;;;;;;10.57;9.75;;;;;;;24.76;62.80;92268.22;5030264;28;20254;-71
2022/08/21 11:02:28;;;;;;;10.38;9.48;;;;;;;24.43;64.74;92268.38;5011074;28;20194;-71
2022/08/21 11:05:02;;;;;;;10.70;10.00;;;;;;;24.27;64.26;92255.31;5012158;28;20256;-72
2022/08/21 11:07:35;;;;;;;10.25;9.45;;;;;;;24.03;65.96;92263.13;5030412;28;20974;-72
2022/08/21 11:10:12;;;;;;;10.85;9.85;;;;;;;23.99;65.99;92251.66;5029104;28;20239;-71
2022/08/21 11:12:50;;;;;;;11.55;10.07;;;;;;;23.65;66.71;92259.75;5030063;28;20193;-71
2022/08/21 11:15:26;;;;;;;10.15;9.18;;;;;;;24.03;62.66;92252.47;5030089;28;20252;-72
2022/08/21 11:18:09;;;;;;;11.70;9.93;;;;;;;23.74;64.55;92244.19;5030260;28;20228;-71
2022/08/21 11:20:46;;;;;;;11.82;10.77;;;;;;;23.62;66.29;92249.03;5029705;28;20230;-71
2022/08/21 11:23:22;;;;;;;10.55;9.50;;;;;;;23.31;66.89;92236.94;5030316;28;20194;-71
2022/08/21 11:25:53;;;;;;;11.18;10.27;;;;;;;23.26;65.22;92247.94;5029498;28;20221;-71
2022/08/21 11:28:35;;;;;;;11.05;10.15;;;;;;;23.48;64.75;92249.69;5030075;28;20220;-73
2022/08/21 11:31:12;;;;;;;10.63;9.60;;;;;;;23.93;61.85;92243.22;5029061;28;20233;-72
2022/08/21 11:34:01;;;;;;;10.93;10.05;;;;;;;24.08;61.96;92242.22;5029803;28;20342;-71